createdAt,value
2023-01-17T00:00:18.718Z,96669.72
2023-01-17T00:02:47.045Z,96673.53
2023-01-17T00:05:32.563Z,96676.50
2023-01-17T00:08:17.778Z,96669.09
2023-01-17T00:10:47.328Z,96668.66
2023-01-17T00:13:15.239Z,96673.75
2023-01-17T00:15:43.483Z,96678.22
2023-01-17T00:18:11.415Z,96586.31
2023-01-17T00:20:56.740Z,96680.84
2023-01-17T00:23:55.547Z,96642.31
2023-01-17T00:26:24.886Z,96660.09
2023-01-17T00:28:51.685Z,96577.91
2023-01-17T00:31:18.608Z,96651.28
2023-01-17T00:33:45.448Z,96693.13
2023-01-17T00:36:12.267Z,96699.50
2023-01-17T00:38:40.406Z,96710.81
2023-01-17T00:41:09.292Z,96706.28
2023-01-17T00:43:56.370Z,96720.25
2023-01-17T00:46:41.581Z,96706.28
2023-01-17T00:49:27.699Z,96715.91
2023-01-17T00:52:13.120Z,96728.22
2023-01-17T00:54:58.271Z,96647.78
2023-01-17T00:57:43.787Z,96687.41
2023-01-17T01:00:31.900Z,96531.00
2023-01-17T01:03:17.009Z,96726.72
2023-01-17T01:06:02.531Z,96671.59
2023-01-17T01:08:48.641Z,96756.50
2023-01-17T01:11:36.066Z,96746.59
2023-01-17T01:14:22.430Z,96717.88
2023-01-17T01:17:09.453Z,96733.34
2023-01-17T01:19:54.657Z,96759.00
2023-01-17T01:22:40.077Z,96753.09
2023-01-17T01:25:26.007Z,96704.28
2023-01-17T01:28:11.467Z,96763.34
2023-01-17T01:30:56.642Z,96502.00
2023-01-17T01:33:24.734Z,96783.75
2023-01-17T01:35:54.676Z,96787.75
2023-01-17T01:38:25.384Z,96797.28
2023-01-17T01:40:55.843Z,96767.91
2023-01-17T01:43:41.301Z,96808.72
2023-01-17T01:46:12.298Z,96808.94
2023-01-17T01:48:45.384Z,96808.47
2023-01-17T01:51:18.359Z,96814.72
2023-01-17T01:53:49.052Z,96804.75
2023-01-17T01:56:20.098Z,96817.25
2023-01-17T01:58:52.609Z,96611.19
2023-01-17T02:01:21.092Z,96823.84
2023-01-17T02:03:51.129Z,96819.19
2023-01-17T02:06:35.945Z,96764.75
2023-01-17T02:09:07.596Z,96824.78
2023-01-17T02:11:38.836Z,96822.28
2023-01-17T02:14:07.040Z,96820.56
2023-01-17T02:16:51.270Z,96821.38
2023-01-17T02:19:45.808Z,96624.66
2023-01-17T02:22:38.072Z,96794.34
2023-01-17T02:25:21.537Z,96822.78
2023-01-17T02:28:07.720Z,96692.56
2023-01-17T02:30:40.607Z,96827.25
2023-01-17T02:33:23.523Z,96819.16
2023-01-17T02:35:59.720Z,96816.44
2023-01-17T02:38:38.049Z,96818.72
2023-01-17T02:41:08.042Z,96829.97
2023-01-17T02:43:37.437Z,96830.72
2023-01-17T02:46:09.561Z,96820.94
2023-01-17T02:48:38.278Z,96815.16
2023-01-17T02:51:39.006Z,96826.56
2023-01-17T02:54:33.606Z,96839.50
2023-01-17T02:57:14.851Z,96837.84
2023-01-17T02:59:51.099Z,96838.84
2023-01-17T03:02:29.121Z,96828.34
2023-01-17T03:05:02.758Z,96848.22
2023-01-17T03:07:32.690Z,96844.97
2023-01-17T03:10:05.119Z,96840.00
2023-01-17T03:12:36.232Z,96841.69
2023-01-17T03:15:04.289Z,96864.94
2023-01-17T03:17:34.129Z,96871.28
2023-01-17T03:20:01.944Z,96887.19
2023-01-17T03:22:29.753Z,96887.97
2023-01-17T03:24:57.721Z,96900.25
2023-01-17T03:27:25.573Z,96904.66
2023-01-17T03:29:53.439Z,96813.31
2023-01-17T03:32:21.288Z,96919.97
2023-01-17T03:34:50.627Z,96903.25
2023-01-17T03:37:18.599Z,96931.84
2023-01-17T03:39:46.423Z,96851.09
2023-01-17T03:42:14.290Z,96771.47
2023-01-17T03:44:42.123Z,96932.31
2023-01-17T03:47:12.115Z,96879.97
2023-01-17T03:49:40.082Z,96944.97
2023-01-17T03:52:09.343Z,96945.47
2023-01-17T03:54:37.151Z,96944.53
2023-01-17T03:57:05.193Z,96942.34
2023-01-17T03:59:33.987Z,96955.91
2023-01-17T04:02:02.217Z,96870.94
2023-01-17T04:04:30.186Z,96757.69
2023-01-17T04:06:57.992Z,96958.91
2023-01-17T04:09:27.201Z,96954.53
2023-01-17T04:11:55.253Z,96949.09
2023-01-17T04:14:23.291Z,96882.84
2023-01-17T04:16:51.131Z,96980.56
2023-01-17T04:19:19.281Z,96980.09
2023-01-17T04:21:47.226Z,96940.34
2023-01-17T04:24:17.729Z,96973.41
2023-01-17T04:26:47.069Z,96984.56
2023-01-17T04:29:14.882Z,96986.53
2023-01-17T04:31:42.793Z,96995.63
2023-01-17T04:34:10.757Z,96971.59
2023-01-17T04:36:38.691Z,97008.09
2023-01-17T04:39:06.548Z,97018.56
2023-01-17T04:41:34.496Z,97021.03
2023-01-17T04:44:04.321Z,97026.41
2023-01-17T04:46:32.551Z,97015.75
2023-01-17T04:49:00.469Z,97027.66
2023-01-17T04:51:28.397Z,96998.06
2023-01-17T04:53:56.478Z,97065.84
2023-01-17T04:56:24.304Z,97071.41
2023-01-17T04:58:52.313Z,97082.19
2023-01-17T05:01:21.645Z,97074.22
2023-01-17T05:03:49.658Z,97081.63
2023-01-17T05:06:17.682Z,97077.16
2023-01-17T05:08:45.559Z,97087.50
2023-01-17T05:11:13.453Z,96981.44
2023-01-17T05:13:41.270Z,97014.50
2023-01-17T05:16:09.184Z,97126.28
2023-01-17T05:18:38.479Z,97075.06
2023-01-17T05:21:06.685Z,97145.38
2023-01-17T05:23:34.672Z,97131.59
2023-01-17T05:26:02.577Z,97139.59
2023-01-17T05:28:30.364Z,97145.72
2023-01-17T05:30:58.354Z,97153.22
2023-01-17T05:33:26.528Z,97159.13
2023-01-17T05:35:55.972Z,97163.53
2023-01-17T05:38:24.107Z,97139.63
2023-01-17T05:40:52.057Z,97168.91
2023-01-17T05:43:22.073Z,97091.13
2023-01-17T05:45:50.527Z,97180.19
2023-01-17T05:48:18.428Z,97185.38
2023-01-17T05:50:46.278Z,97190.91
2023-01-17T05:53:17.275Z,97190.84
2023-01-17T05:55:45.550Z,97205.09
2023-01-17T05:58:17.324Z,97208.66
2023-01-17T06:00:46.177Z,97218.69
2023-01-17T06:03:14.348Z,97222.53
2023-01-17T06:05:43.029Z,97225.97
2023-01-17T06:08:11.301Z,97243.34
2023-01-17T06:10:41.014Z,97234.16
2023-01-17T06:13:12.207Z,97250.00
2023-01-17T06:15:41.080Z,97231.66
2023-01-17T06:18:10.614Z,97246.16
2023-01-17T06:20:38.758Z,97248.03
2023-01-17T06:23:09.039Z,97232.50
2023-01-17T06:25:38.735Z,97227.22
2023-01-17T06:28:08.477Z,97260.91
2023-01-17T06:30:37.222Z,97245.47
2023-01-17T06:33:05.603Z,97260.78
2023-01-17T06:35:34.043Z,97280.66
2023-01-17T06:38:02.030Z,97284.03
2023-01-17T06:40:30.715Z,97122.03
2023-01-17T06:43:00.903Z,97285.03
2023-01-17T06:45:30.937Z,97286.66
2023-01-17T06:47:59.697Z,97288.69
2023-01-17T06:50:27.925Z,97297.31
2023-01-17T06:52:57.157Z,97303.41
2023-01-17T06:55:25.093Z,97307.78
2023-01-17T06:57:52.940Z,97312.75
2023-01-17T07:00:21.353Z,97310.81
2023-01-17T07:02:51.852Z,96998.06
2023-01-17T07:05:20.521Z,97321.09
2023-01-17T07:07:48.610Z,97130.28
2023-01-17T07:10:17.461Z,97335.84
2023-01-17T07:12:45.450Z,97303.88
2023-01-17T07:15:13.913Z,97336.03
2023-01-17T07:17:41.787Z,97342.34
2023-01-17T07:20:13.582Z,97321.94
2023-01-17T07:22:45.298Z,97347.00
2023-01-17T07:25:13.904Z,97183.81
2023-01-17T07:27:41.729Z,97363.41
2023-01-17T07:30:11.153Z,97363.81
2023-01-17T07:32:39.008Z,97364.41
2023-01-17T07:35:08.119Z,97362.94
2023-01-17T07:37:37.380Z,97376.50
2023-01-17T07:40:06.030Z,97375.72
2023-01-17T07:42:33.904Z,97378.06
2023-01-17T07:45:02.206Z,97383.13
2023-01-17T07:47:30.260Z,97386.06
2023-01-17T07:49:58.064Z,97387.84
2023-01-17T07:52:26.090Z,97271.03
2023-01-17T07:54:55.311Z,97362.00
2023-01-17T07:57:23.393Z,97392.28
2023-01-17T07:59:52.331Z,97395.47
2023-01-17T08:02:23.457Z,97398.53
2023-01-17T08:04:51.505Z,97402.69
2023-01-17T08:07:19.325Z,97405.50
2023-01-17T08:09:49.775Z,97408.06
2023-01-17T08:12:19.132Z,97409.88
2023-01-17T08:14:46.974Z,97400.38
2023-01-17T08:17:16.473Z,97409.78
2023-01-17T08:19:44.717Z,97413.28
2023-01-17T08:22:13.229Z,97314.16
2023-01-17T08:24:41.828Z,97344.59
2023-01-17T08:27:10.304Z,97392.47
2023-01-17T08:29:42.045Z,97382.47
2023-01-17T08:32:09.977Z,97427.75
2023-01-17T08:34:37.824Z,97441.88
2023-01-17T08:37:05.662Z,97451.38
2023-01-17T08:39:33.500Z,97399.16
2023-01-17T08:42:01.728Z,97455.69
2023-01-17T08:44:29.470Z,97426.09
2023-01-17T08:46:59.105Z,97453.28
2023-01-17T08:49:29.646Z,97454.75
2023-01-17T08:51:57.543Z,97377.69
2023-01-17T08:54:25.354Z,97457.69
2023-01-17T08:56:55.523Z,97456.00
2023-01-17T08:59:23.345Z,97449.25
2023-01-17T09:01:52.477Z,97450.56
2023-01-17T09:04:22.166Z,97445.00
2023-01-17T09:06:50.354Z,97450.16
2023-01-17T09:09:18.774Z,97456.16
2023-01-17T09:11:46.796Z,97438.28
2023-01-17T09:14:15.538Z,97438.88
2023-01-17T09:16:43.491Z,97453.25
2023-01-17T09:19:11.597Z,97451.63
2023-01-17T09:21:40.986Z,97458.97
2023-01-17T09:24:08.936Z,97467.44
2023-01-17T09:26:36.886Z,97454.19
2023-01-17T09:29:04.762Z,97461.72
2023-01-17T09:31:32.846Z,97474.78
2023-01-17T09:34:01.319Z,97475.81
2023-01-17T09:36:31.834Z,97429.38
2023-01-17T09:39:02.064Z,97487.03
2023-01-17T09:41:31.375Z,97478.31
2023-01-17T09:44:07.605Z,97432.28
2023-01-17T09:46:40.573Z,97468.00
2023-01-17T09:49:12.958Z,97482.75
2023-01-17T09:51:42.170Z,97475.34
2023-01-17T09:54:22.832Z,97490.06
2023-01-17T09:56:59.187Z,97486.38
2023-01-17T09:59:36.887Z,97442.84
2023-01-17T10:02:19.651Z,97466.53
2023-01-17T10:05:13.580Z,97473.81
2023-01-17T10:07:52.742Z,97482.91
2023-01-17T10:10:38.095Z,97493.25
2023-01-17T10:13:17.581Z,97486.16
2023-01-17T10:15:57.722Z,97489.06
2023-01-17T10:18:48.752Z,97465.19
2023-01-17T10:21:28.200Z,97486.31
2023-01-17T10:24:16.593Z,97493.22
2023-01-17T10:26:49.914Z,97499.50
2023-01-17T10:29:20.272Z,97500.78
2023-01-17T10:31:55.902Z,97504.22
2023-01-17T10:34:29.286Z,97482.25
2023-01-17T10:37:03.117Z,97459.72
2023-01-17T10:39:32.168Z,97505.66
2023-01-17T10:42:07.807Z,97446.34
2023-01-17T10:44:40.904Z,97510.44
2023-01-17T10:47:19.757Z,97506.31
2023-01-17T10:49:52.074Z,97505.94
2023-01-17T10:52:34.526Z,97502.56
2023-01-17T10:55:16.506Z,97509.56
2023-01-17T10:57:48.722Z,97525.91
2023-01-17T11:00:29.957Z,97496.06
2023-01-17T11:02:58.351Z,97515.63
2023-01-17T11:05:28.748Z,97474.72
2023-01-17T11:08:03.140Z,97532.50
2023-01-17T11:10:39.942Z,97532.81
2023-01-17T11:13:24.756Z,97537.09
2023-01-17T11:15:57.858Z,97497.94
2023-01-17T11:18:28.754Z,97489.91
2023-01-17T11:21:11.390Z,97536.19
2023-01-17T11:23:42.894Z,97520.91
2023-01-17T11:26:13.933Z,97534.25
2023-01-17T11:28:43.639Z,97508.56
2023-01-17T11:31:26.957Z,97537.38
2023-01-17T11:34:14.489Z,97390.63
2023-01-17T11:36:43.048Z,97523.44
2023-01-17T11:39:27.807Z,97534.16
2023-01-17T11:41:55.900Z,97533.97
2023-01-17T11:44:28.360Z,97541.69
2023-01-17T11:47:19.251Z,97541.34
2023-01-17T11:49:49.413Z,97343.91
2023-01-17T11:52:25.397Z,97542.44
2023-01-17T11:54:56.017Z,97539.72
2023-01-17T11:57:27.623Z,97534.69
2023-01-17T12:00:05.122Z,97515.47
2023-01-17T12:03:08.106Z,97516.84
2023-01-17T12:05:51.391Z,97520.78
2023-01-17T12:08:35.286Z,97474.88
2023-01-17T12:11:13.092Z,97530.44
2023-01-17T12:14:01.294Z,97446.53
2023-01-17T12:16:54.970Z,97538.09
2023-01-17T12:19:36.607Z,97527.16
2023-01-17T12:22:20.674Z,97326.59
2023-01-17T12:25:02.666Z,97356.94
2023-01-17T12:27:45.606Z,97512.41
2023-01-17T12:30:25.444Z,97346.16
2023-01-17T12:33:10.349Z,97532.84
2023-01-17T12:35:43.431Z,97500.75
2023-01-17T12:38:27.318Z,97527.25
2023-01-17T12:41:05.321Z,97520.41
2023-01-17T12:43:37.244Z,97528.97
2023-01-17T12:46:12.831Z,97524.44
2023-01-17T12:48:42.343Z,97487.69
2023-01-17T12:51:16.578Z,97506.78
2023-01-17T12:53:56.442Z,97537.66
2023-01-17T12:56:30.144Z,97518.09
2023-01-17T12:59:07.512Z,97493.41
2023-01-17T13:01:39.833Z,97544.59
2023-01-17T13:04:19.561Z,97524.44
2023-01-17T13:06:57.666Z,97537.00
2023-01-17T13:09:27.997Z,97538.19
2023-01-17T13:12:01.616Z,97542.22
2023-01-17T13:14:29.747Z,97521.47
2023-01-17T13:17:00.388Z,97529.56
2023-01-17T13:19:41.357Z,97539.63
2023-01-17T13:22:17.407Z,97449.97
2023-01-17T13:24:53.617Z,97546.78
2023-01-17T13:27:46.559Z,97545.50
2023-01-17T13:30:43.303Z,97546.97
2023-01-17T13:33:34.311Z,97545.13
2023-01-17T13:36:29.828Z,97546.22
2023-01-17T13:39:29.840Z,97554.16
2023-01-17T13:42:10.403Z,97561.34
2023-01-17T13:44:38.637Z,97479.72
2023-01-17T13:47:28.132Z,97529.63
2023-01-17T13:49:57.638Z,97519.22
2023-01-17T13:52:33.556Z,97498.72
2023-01-17T13:55:03.521Z,97499.63
2023-01-17T13:57:39.934Z,97545.88
2023-01-17T14:00:59.414Z,97551.59
2023-01-17T14:04:04.065Z,97558.03
2023-01-17T14:06:38.147Z,97548.03
2023-01-17T14:09:14.166Z,97472.78
2023-01-17T14:11:54.422Z,97543.56
2023-01-17T14:14:43.577Z,97553.50
2023-01-17T14:17:48.260Z,97558.97
2023-01-17T14:20:38.352Z,97560.13
2023-01-17T14:23:27.262Z,97556.72
2023-01-17T14:25:59.095Z,97552.63
2023-01-17T14:28:33.354Z,97560.56
2023-01-17T14:31:03.361Z,97541.84
2023-01-17T14:33:37.398Z,97471.34
2023-01-17T14:36:07.415Z,97531.09
2023-01-17T14:38:43.623Z,97524.88
2023-01-17T14:41:16.309Z,97513.44
2023-01-17T14:43:45.381Z,97544.19
2023-01-17T14:46:19.805Z,97546.41
2023-01-17T14:48:47.835Z,97543.34
2023-01-17T14:51:21.485Z,97498.81
2023-01-17T14:53:59.000Z,97537.84
2023-01-17T14:56:29.478Z,97323.53
2023-01-17T14:59:14.657Z,97536.38
2023-01-17T15:01:43.062Z,97548.66
2023-01-17T15:04:25.940Z,97311.53
2023-01-17T15:06:54.739Z,97543.97
2023-01-17T15:09:26.898Z,97541.75
2023-01-17T15:11:57.308Z,97436.50
2023-01-17T15:14:29.964Z,97550.28
2023-01-17T15:16:58.224Z,97557.78
2023-01-17T15:19:26.744Z,97534.91
2023-01-17T15:21:55.783Z,97491.78
2023-01-17T15:24:28.815Z,97557.25
2023-01-17T15:26:57.272Z,97534.59
2023-01-17T15:29:27.784Z,97556.50
2023-01-17T15:31:59.122Z,97543.66
2023-01-17T15:34:30.337Z,97518.69
2023-01-17T15:37:01.529Z,97577.78
2023-01-17T15:39:32.894Z,97517.31
2023-01-17T15:42:04.110Z,97583.06
2023-01-17T15:44:47.417Z,97592.34
2023-01-17T15:47:29.892Z,97596.22
2023-01-17T15:49:58.026Z,97604.50
2023-01-17T15:52:26.038Z,97599.91
2023-01-17T15:54:59.653Z,97573.78
2023-01-17T15:57:29.721Z,97585.72
2023-01-17T16:00:01.923Z,97605.75
2023-01-17T16:02:42.993Z,97602.06
2023-01-17T16:05:44.756Z,97604.06
2023-01-17T16:08:29.057Z,97596.50
2023-01-17T16:11:02.152Z,97571.66
2023-01-17T16:13:32.045Z,97555.78
2023-01-17T16:16:14.687Z,97600.03
2023-01-17T16:18:43.567Z,97587.53
2023-01-17T16:21:24.272Z,97583.56
2023-01-17T16:23:52.894Z,97598.38
2023-01-17T16:26:22.729Z,97582.44
2023-01-17T16:28:51.389Z,97601.66
2023-01-17T16:31:20.045Z,97609.03
2023-01-17T16:33:50.769Z,97617.28
2023-01-17T16:36:20.902Z,97500.63
2023-01-17T16:38:50.386Z,97616.84
2023-01-17T16:41:19.080Z,97616.16
2023-01-17T16:43:58.514Z,97590.09
2023-01-17T16:46:27.112Z,97585.28
2023-01-17T16:48:55.137Z,97631.25
2023-01-17T16:51:23.303Z,97606.09
2023-01-17T16:53:51.145Z,97572.97
2023-01-17T16:56:20.692Z,97616.09
2023-01-17T16:58:52.155Z,97617.13
2023-01-17T17:01:21.284Z,97636.19
2023-01-17T17:03:49.609Z,97633.09
2023-01-17T17:06:17.470Z,97634.31
2023-01-17T17:08:45.903Z,97639.97
2023-01-17T17:11:16.464Z,97637.81
2023-01-17T17:13:45.789Z,97638.41
2023-01-17T17:16:17.738Z,97650.00
2023-01-17T17:18:47.359Z,97566.72
2023-01-17T17:21:15.970Z,97626.41
2023-01-17T17:23:44.031Z,97639.00
2023-01-17T17:26:11.949Z,97644.44
2023-01-17T17:28:39.797Z,97626.94
2023-01-17T17:31:10.416Z,97639.44
2023-01-17T17:33:39.931Z,97636.81
2023-01-17T17:36:10.869Z,97627.97
2023-01-17T17:38:50.788Z,97628.59
2023-01-17T17:41:21.049Z,97631.91
2023-01-17T17:43:48.798Z,97626.63
2023-01-17T17:46:16.790Z,97627.16
2023-01-17T17:48:45.985Z,97542.00
2023-01-17T17:51:23.463Z,97635.88
2023-01-17T17:53:52.649Z,97647.16
2023-01-17T17:56:20.842Z,97517.78
2023-01-17T17:58:49.337Z,97631.00
2023-01-17T18:01:17.353Z,97649.69
2023-01-17T18:03:46.683Z,97507.03
2023-01-17T18:06:17.607Z,97656.16
2023-01-17T18:08:46.069Z,97663.16
2023-01-17T18:11:18.376Z,97653.69
2023-01-17T18:13:50.505Z,97666.34
2023-01-17T18:16:21.243Z,97678.38
2023-01-17T18:18:52.354Z,97678.94
2023-01-17T18:21:23.816Z,97688.94
2023-01-17T18:23:54.455Z,97693.84
2023-01-17T18:26:24.782Z,97694.94
2023-01-17T18:28:53.257Z,97617.19
2023-01-17T18:31:21.414Z,97702.06
2023-01-17T18:33:50.927Z,97564.94
2023-01-17T18:36:19.651Z,97545.41
2023-01-17T18:38:48.744Z,97675.88
2023-01-17T18:41:18.639Z,97694.41
2023-01-17T18:43:46.524Z,97698.16
2023-01-17T18:46:14.886Z,97695.69
2023-01-17T18:48:43.019Z,97660.66
2023-01-17T18:51:14.110Z,97314.72
2023-01-17T18:53:44.014Z,97699.69
2023-01-17T18:56:13.922Z,97685.00
2023-01-17T18:58:43.519Z,97703.00
2023-01-17T19:01:13.908Z,97696.25
2023-01-17T19:03:43.859Z,97655.34
2023-01-17T19:06:15.490Z,97706.03
2023-01-17T19:08:44.197Z,97706.72
2023-01-17T19:11:12.379Z,97719.22
2023-01-17T19:13:41.849Z,97713.94
2023-01-17T19:16:13.833Z,97691.66
2023-01-17T19:18:42.142Z,97726.28
2023-01-17T19:21:11.565Z,97734.28
2023-01-17T19:23:41.328Z,97725.34
2023-01-17T19:26:10.176Z,97663.66
2023-01-17T19:28:39.572Z,97742.97
2023-01-17T19:31:09.904Z,97748.22
2023-01-17T19:33:39.499Z,97745.47
2023-01-17T19:36:10.514Z,97755.88
2023-01-17T19:38:40.374Z,97535.69
2023-01-17T19:41:10.134Z,97765.25
2023-01-17T19:43:38.247Z,97767.00
2023-01-17T19:46:08.047Z,97773.78
2023-01-17T19:48:36.648Z,97759.03
2023-01-17T19:51:06.463Z,97776.16
2023-01-17T19:53:35.688Z,97770.78
2023-01-17T19:56:07.920Z,97769.94
2023-01-17T19:58:36.353Z,97774.34
2023-01-17T20:01:09.435Z,97741.00
2023-01-17T20:03:38.419Z,97770.22
2023-01-17T20:06:07.447Z,97775.94
2023-01-17T20:08:35.823Z,97776.03
2023-01-17T20:11:06.670Z,97777.66
2023-01-17T20:13:34.653Z,97773.38
2023-01-17T20:16:03.416Z,97772.72
2023-01-17T20:18:31.517Z,97779.59
2023-01-17T20:21:03.225Z,97745.47
2023-01-17T20:23:35.445Z,97784.25
2023-01-17T20:26:04.645Z,97773.25
2023-01-17T20:28:35.607Z,97771.44
2023-01-17T20:31:08.885Z,97794.41
2023-01-17T20:33:37.345Z,97768.84
2023-01-17T20:36:10.438Z,97791.66
2023-01-17T20:38:44.736Z,97792.69
2023-01-17T20:41:14.494Z,97795.78
2023-01-17T20:43:44.529Z,97801.84
2023-01-17T20:46:12.797Z,97796.94
2023-01-17T20:48:45.482Z,97808.16
2023-01-17T20:51:13.702Z,97548.75
2023-01-17T20:53:43.382Z,97799.75
2023-01-17T20:56:13.133Z,97806.38
2023-01-17T20:58:41.907Z,97775.44
2023-01-17T21:01:13.018Z,97807.09
2023-01-17T21:03:41.131Z,97802.41
2023-01-17T21:06:11.251Z,97684.72
2023-01-17T21:08:39.378Z,97804.03
2023-01-17T21:11:09.076Z,97787.53
2023-01-17T21:13:36.883Z,97798.84
2023-01-17T21:16:05.149Z,97781.78
2023-01-17T21:18:35.334Z,97803.34
2023-01-17T21:21:03.517Z,97805.66
2023-01-17T21:23:31.304Z,97802.41
2023-01-17T21:25:59.233Z,97804.19
2023-01-17T21:28:29.135Z,97808.13
2023-01-17T21:30:57.977Z,97801.78
2023-01-17T21:33:29.280Z,97804.91
2023-01-17T21:36:07.800Z,97801.53
2023-01-17T21:38:35.865Z,97779.72
2023-01-17T21:41:03.957Z,97743.91
2023-01-17T21:43:31.975Z,97811.91
2023-01-17T21:46:03.423Z,97798.78
2023-01-17T21:48:31.546Z,97642.22
2023-01-17T21:51:06.073Z,97822.66
2023-01-17T21:53:35.455Z,97810.47
2023-01-17T21:56:25.945Z,97814.91
2023-01-17T21:58:56.813Z,97829.00
2023-01-17T22:01:26.239Z,97839.47
2023-01-17T22:03:56.190Z,97849.06
2023-01-17T22:06:27.680Z,97848.03
2023-01-17T22:08:57.341Z,97835.38
2023-01-17T22:11:27.315Z,97832.09
2023-01-17T22:13:56.740Z,97858.88
2023-01-17T22:16:26.806Z,97845.53
2023-01-17T22:18:54.946Z,97850.91
2023-01-17T22:21:26.147Z,97867.28
2023-01-17T22:23:56.363Z,97874.81
2023-01-17T22:26:26.253Z,97868.00
2023-01-17T22:28:54.728Z,97869.91
2023-01-17T22:31:24.699Z,97867.75
2023-01-17T22:33:54.935Z,97871.03
2023-01-17T22:36:23.465Z,97880.66
2023-01-17T22:38:53.415Z,97854.66
2023-01-17T22:41:23.223Z,97882.97
2023-01-17T22:43:52.770Z,97848.03
2023-01-17T22:46:23.059Z,97883.22
2023-01-17T22:48:52.201Z,97866.50
2023-01-17T22:51:21.659Z,97880.53
2023-01-17T22:53:51.015Z,97881.09
2023-01-17T22:56:22.561Z,97873.22
2023-01-17T22:58:51.194Z,97876.72
2023-01-17T23:01:20.815Z,97892.38
2023-01-17T23:03:53.363Z,97861.28
2023-01-17T23:06:25.414Z,97901.38
2023-01-17T23:08:55.359Z,97895.44
2023-01-17T23:11:43.789Z,97897.84
2023-01-17T23:14:17.440Z,97872.63
2023-01-17T23:17:05.692Z,97900.34
2023-01-17T23:19:35.895Z,97691.31
2023-01-17T23:22:19.094Z,97902.94
2023-01-17T23:24:49.574Z,97908.81
2023-01-17T23:27:38.913Z,97910.41
2023-01-17T23:30:11.118Z,97903.16
2023-01-17T23:32:39.067Z,97870.84
2023-01-17T23:35:07.782Z,97905.19
2023-01-17T23:37:52.907Z,97908.78
2023-01-17T23:40:20.793Z,97900.84
2023-01-17T23:43:07.517Z,97899.81
2023-01-17T23:45:36.779Z,97882.94
2023-01-17T23:48:09.208Z,97792.13
2023-01-17T23:50:38.178Z,97888.16
2023-01-17T23:53:07.952Z,97886.75
2023-01-17T23:55:37.323Z,97885.78
2023-01-17T23:58:08.441Z,97871.75
